sensor_id;sensor_type;location;lat;lon;timestamp;P1;durP1;ratioP1;P2;durP2;ratioP2
6983;SDS011;3532;51.118;7.210;2023-06-14T00:01:17;5.23;;;4.73;;
6983;SDS011;3532;51.118;7.210;2023-06-14T00:03:45;6.77;;;5.30;;
6983;SDS011;3532;51.118;7.210;2023-06-14T00:06:10;5.47;;;4.97;;
6983;SDS011;3532;51.118;7.210;2023-06-14T00:08:36;5.67;;;5.20;;
6983;SDS011;3532;51.118;7.210;2023-06-14T00:11:01;5.80;;;5.20;;
6983;SDS011;3532;51.118;7.210;2023-06-14T00:13:27;5.87;;;5.20;;
6983;SDS011;3532;51.118;7.210;2023-06-14T00:15:52;5.90;;;5.20;;
6983;SDS011;3532;51.118;7.210;2023-06-14T00:18:19;5.43;;;4.83;;
6983;SDS011;3532;51.118;7.210;2023-06-14T00:20:48;5.93;;;5.33;;
6983;SDS011;3532;51.118;7.210;2023-06-14T00:23:14;6.07;;;5.37;;
6983;SDS011;3532;51.118;7.210;2023-06-14T00:25:40;5.70;;;5.10;;
6983;SDS011;3532;51.118;7.210;2023-06-14T00:28:05;5.93;;;5.43;;
6983;SDS011;3532;51.118;7.210;2023-06-14T00:30:30;6.77;;;5.20;;
6983;SDS011;3532;51.118;7.210;2023-06-14T00:32:56;5.20;;;4.70;;
6983;SDS011;3532;51.118;7.210;2023-06-14T00:35:22;5.43;;;4.93;;
6983;SDS011;3532;51.118;7.210;2023-06-14T00:37:47;5.47;;;4.90;;
6983;SDS011;3532;51.118;7.210;2023-06-14T00:40:12;5.80;;;5.13;;
6983;SDS011;3532;51.118;7.210;2023-06-14T00:42:38;6.70;;;5.17;;
6983;SDS011;3532;51.118;7.210;2023-06-14T00:45:03;5.57;;;5.07;;
6983;SDS011;3532;51.118;7.210;2023-06-14T00:47:29;6.13;;;5.53;;
6983;SDS011;3532;51.118;7.210;2023-06-14T00:49:55;5.60;;;5.10;;
6983;SDS011;3532;51.118;7.210;2023-06-14T00:52:21;5.97;;;5.40;;
6983;SDS011;3532;51.118;7.210;2023-06-14T00:54:49;5.63;;;5.13;;
6983;SDS011;3532;51.118;7.210;2023-06-14T00:57:14;9.47;;;5.87;;
6983;SDS011;3532;51.118;7.210;2023-06-14T00:59:43;5.47;;;4.93;;
6983;SDS011;3532;51.118;7.210;2023-06-14T01:02:10;5.60;;;5.10;;
6983;SDS011;3532;51.118;7.210;2023-06-14T01:04:36;5.97;;;5.10;;
6983;SDS011;3532;51.118;7.210;2023-06-14T01:07:15;6.50;;;4.73;;
6983;SDS011;3532;51.118;7.210;2023-06-14T01:15:24;5.63;;;4.73;;
6983;SDS011;3532;51.118;7.210;2023-06-14T01:17:50;5.63;;;5.03;;
6983;SDS011;3532;51.118;7.210;2023-06-14T01:20:22;6.10;;;5.27;;
6983;SDS011;3532;51.118;7.210;2023-06-14T01:22:54;5.17;;;4.70;;
6983;SDS011;3532;51.118;7.210;2023-06-14T01:25:20;5.30;;;4.63;;
6983;SDS011;3532;51.118;7.210;2023-06-14T01:27:48;6.07;;;4.73;;
6983;SDS011;3532;51.118;7.210;2023-06-14T01:30:15;5.40;;;4.60;;
6983;SDS011;3532;51.118;7.210;2023-06-14T01:32:40;7.17;;;4.77;;
6983;SDS011;3532;51.118;7.210;2023-06-14T01:35:06;5.83;;;4.77;;
6983;SDS011;3532;51.118;7.210;2023-06-14T01:37:31;6.63;;;4.80;;
6983;SDS011;3532;51.118;7.210;2023-06-14T01:39:57;5.67;;;4.63;;
6983;SDS011;3532;51.118;7.210;2023-06-14T01:42:23;5.67;;;5.10;;
6983;SDS011;3532;51.118;7.210;2023-06-14T01:44:48;4.70;;;4.30;;
6983;SDS011;3532;51.118;7.210;2023-06-14T01:47:14;5.97;;;4.63;;
6983;SDS011;3532;51.118;7.210;2023-06-14T01:49:40;6.43;;;5.27;;
6983;SDS011;3532;51.118;7.210;2023-06-14T01:52:05;6.07;;;5.07;;
6983;SDS011;3532;51.118;7.210;2023-06-14T01:54:34;7.23;;;5.03;;
6983;SDS011;3532;51.118;7.210;2023-06-14T01:57:02;5.27;;;4.87;;
6983;SDS011;3532;51.118;7.210;2023-06-14T01:59:28;5.57;;;4.33;;
6983;SDS011;3532;51.118;7.210;2023-06-14T02:01:53;6.20;;;4.80;;
6983;SDS011;3532;51.118;7.210;2023-06-14T02:04:18;7.17;;;4.73;;
6983;SDS011;3532;51.118;7.210;2023-06-14T02:06:44;4.60;;;4.20;;
6983;SDS011;3532;51.118;7.210;2023-06-14T02:09:09;5.93;;;4.10;;
6983;SDS011;3532;51.118;7.210;2023-06-14T02:11:34;5.90;;;4.60;;
6983;SDS011;3532;51.118;7.210;2023-06-14T02:14:00;5.63;;;4.83;;
6983;SDS011;3532;51.118;7.210;2023-06-14T02:16:26;5.27;;;4.23;;
6983;SDS011;3532;51.118;7.210;2023-06-14T02:18:53;5.83;;;4.53;;
6983;SDS011;3532;51.118;7.210;2023-06-14T02:21:18;4.53;;;4.13;;
6983;SDS011;3532;51.118;7.210;2023-06-14T02:23:44;4.97;;;4.43;;
6983;SDS011;3532;51.118;7.210;2023-06-14T02:26:10;4.63;;;4.23;;
6983;SDS011;3532;51.118;7.210;2023-06-14T02:28:35;7.93;;;4.07;;
6983;SDS011;3532;51.118;7.210;2023-06-14T02:31:00;4.20;;;3.80;;
6983;SDS011;3532;51.118;7.210;2023-06-14T02:33:25;6.13;;;4.60;;
6983;SDS011;3532;51.118;7.210;2023-06-14T02:35:51;4.60;;;4.20;;
6983;SDS011;3532;51.118;7.210;2023-06-14T02:38:17;4.40;;;3.97;;
6983;SDS011;3532;51.118;7.210;2023-06-14T02:40:43;5.33;;;4.23;;
6983;SDS011;3532;51.118;7.210;2023-06-14T02:43:08;8.73;;;4.40;;
6983;SDS011;3532;51.118;7.210;2023-06-14T02:45:33;11.20;;;4.57;;
6983;SDS011;3532;51.118;7.210;2023-06-14T02:47:59;8.17;;;4.37;;
6983;SDS011;3532;51.118;7.210;2023-06-14T02:50:24;4.53;;;4.13;;
6983;SDS011;3532;51.118;7.210;2023-06-14T02:52:50;5.73;;;4.60;;
6983;SDS011;3532;51.118;7.210;2023-06-14T02:55:17;5.30;;;4.40;;
6983;SDS011;3532;51.118;7.210;2023-06-14T02:57:42;5.07;;;4.20;;
6983;SDS011;3532;51.118;7.210;2023-06-14T03:00:08;5.17;;;4.67;;
6983;SDS011;3532;51.118;7.210;2023-06-14T03:02:38;4.33;;;3.90;;
6983;SDS011;3532;51.118;7.210;2023-06-14T03:05:03;6.37;;;4.50;;
6983;SDS011;3532;51.118;7.210;2023-06-14T03:07:29;5.67;;;4.37;;
6983;SDS011;3532;51.118;7.210;2023-06-14T03:09:54;6.00;;;4.13;;
6983;SDS011;3532;51.118;7.210;2023-06-14T03:12:20;5.63;;;4.23;;
6983;SDS011;3532;51.118;7.210;2023-06-14T03:14:45;5.20;;;4.50;;
6983;SDS011;3532;51.118;7.210;2023-06-14T03:17:11;4.30;;;3.90;;
6983;SDS011;3532;51.118;7.210;2023-06-14T03:19:36;5.60;;;4.47;;
6983;SDS011;3532;51.118;7.210;2023-06-14T03:22:02;4.87;;;4.37;;
6983;SDS011;3532;51.118;7.210;2023-06-14T03:24:27;4.17;;;3.87;;
6983;SDS011;3532;51.118;7.210;2023-06-14T03:26:53;5.60;;;4.13;;
6983;SDS011;3532;51.118;7.210;2023-06-14T03:29:19;4.93;;;4.43;;
6983;SDS011;3532;51.118;7.210;2023-06-14T03:31:57;5.97;;;4.43;;
6983;SDS011;3532;51.118;7.210;2023-06-14T03:34:26;4.57;;;4.17;;
6983;SDS011;3532;51.118;7.210;2023-06-14T03:36:52;5.37;;;4.30;;
6983;SDS011;3532;51.118;7.210;2023-06-14T03:39:17;5.77;;;4.20;;
6983;SDS011;3532;51.118;7.210;2023-06-14T03:41:43;8.53;;;4.60;;
6983;SDS011;3532;51.118;7.210;2023-06-14T03:44:08;4.90;;;4.50;;
6983;SDS011;3532;51.118;7.210;2023-06-14T03:46:34;4.80;;;4.30;;
6983;SDS011;3532;51.118;7.210;2023-06-14T03:48:59;5.53;;;4.57;;
6983;SDS011;3532;51.118;7.210;2023-06-14T03:51:25;4.27;;;3.87;;
6983;SDS011;3532;51.118;7.210;2023-06-14T03:53:51;5.27;;;4.17;;
6983;SDS011;3532;51.118;7.210;2023-06-14T03:56:16;7.07;;;3.90;;
6983;SDS011;3532;51.118;7.210;2023-06-14T03:58:41;6.43;;;4.33;;
6983;SDS011;3532;51.118;7.210;2023-06-14T04:01:06;4.57;;;4.03;;
6983;SDS011;3532;51.118;7.210;2023-06-14T04:03:32;7.13;;;4.57;;
6983;SDS011;3532;51.118;7.210;2023-06-14T04:05:58;4.50;;;3.87;;
6983;SDS011;3532;51.118;7.210;2023-06-14T04:08:24;5.53;;;4.03;;
6983;SDS011;3532;51.118;7.210;2023-06-14T04:10:49;5.57;;;4.70;;
6983;SDS011;3532;51.118;7.210;2023-06-14T04:13:15;7.93;;;3.90;;
6983;SDS011;3532;51.118;7.210;2023-06-14T04:15:40;4.83;;;4.30;;
6983;SDS011;3532;51.118;7.210;2023-06-14T04:18:12;6.43;;;4.43;;
6983;SDS011;3532;51.118;7.210;2023-06-14T04:20:37;5.27;;;4.80;;
6983;SDS011;3532;51.118;7.210;2023-06-14T04:23:16;6.27;;;4.20;;
6983;SDS011;3532;51.118;7.210;2023-06-14T04:25:46;6.10;;;3.63;;
6983;SDS011;3532;51.118;7.210;2023-06-14T04:28:12;4.33;;;3.93;;
6983;SDS011;3532;51.118;7.210;2023-06-14T04:30:39;6.73;;;3.87;;
6983;SDS011;3532;51.118;7.210;2023-06-14T04:33:05;4.83;;;4.43;;
6983;SDS011;3532;51.118;7.210;2023-06-14T04:35:31;6.17;;;4.10;;
6983;SDS011;3532;51.118;7.210;2023-06-14T04:37:57;9.07;;;3.77;;
6983;SDS011;3532;51.118;7.210;2023-06-14T04:40:23;6.83;;;4.13;;
6983;SDS011;3532;51.118;7.210;2023-06-14T04:42:48;4.43;;;4.03;;
6983;SDS011;3532;51.118;7.210;2023-06-14T04:45:15;4.80;;;4.30;;
6983;SDS011;3532;51.118;7.210;2023-06-14T04:47:41;5.10;;;4.60;;
6983;SDS011;3532;51.118;7.210;2023-06-14T04:50:07;5.83;;;4.67;;
6983;SDS011;3532;51.118;7.210;2023-06-14T04:52:32;8.63;;;4.77;;
6983;SDS011;3532;51.118;7.210;2023-06-14T04:54:58;4.47;;;3.93;;
6983;SDS011;3532;51.118;7.210;2023-06-14T04:57:24;7.70;;;4.60;;
6983;SDS011;3532;51.118;7.210;2023-06-14T04:59:50;6.93;;;4.40;;
6983;SDS011;3532;51.118;7.210;2023-06-14T05:02:19;4.57;;;4.17;;
6983;SDS011;3532;51.118;7.210;2023-06-14T05:04:45;6.27;;;4.40;;
6983;SDS011;3532;51.118;7.210;2023-06-14T05:07:12;5.13;;;4.00;;
6983;SDS011;3532;51.118;7.210;2023-06-14T05:09:39;5.93;;;4.60;;
6983;SDS011;3532;51.118;7.210;2023-06-14T05:12:04;4.20;;;3.77;;
6983;SDS011;3532;51.118;7.210;2023-06-14T05:14:32;6.63;;;4.57;;
6983;SDS011;3532;51.118;7.210;2023-06-14T05:16:58;4.90;;;4.33;;
6983;SDS011;3532;51.118;7.210;2023-06-14T05:19:23;7.93;;;3.97;;
6983;SDS011;3532;51.118;7.210;2023-06-14T05:21:48;6.47;;;3.93;;
6983;SDS011;3532;51.118;7.210;2023-06-14T05:24:14;5.23;;;4.73;;
6983;SDS011;3532;51.118;7.210;2023-06-14T05:26:39;5.03;;;3.87;;
6983;SDS011;3532;51.118;7.210;2023-06-14T05:29:05;4.40;;;4.00;;
6983;SDS011;3532;51.118;7.210;2023-06-14T05:31:31;4.90;;;3.73;;
6983;SDS011;3532;51.118;7.210;2023-06-14T05:33:56;5.57;;;3.83;;
6983;SDS011;3532;51.118;7.210;2023-06-14T05:36:21;6.23;;;3.67;;
6983;SDS011;3532;51.118;7.210;2023-06-14T05:38:47;5.07;;;4.07;;
6983;SDS011;3532;51.118;7.210;2023-06-14T05:41:12;4.53;;;3.90;;
6983;SDS011;3532;51.118;7.210;2023-06-14T05:43:38;8.27;;;3.90;;
6983;SDS011;3532;51.118;7.210;2023-06-14T05:46:03;5.03;;;3.73;;
6983;SDS011;3532;51.118;7.210;2023-06-14T05:48:29;4.70;;;3.70;;
6983;SDS011;3532;51.118;7.210;2023-06-14T05:50:55;5.50;;;4.30;;
6983;SDS011;3532;51.118;7.210;2023-06-14T05:53:20;4.10;;;3.70;;
6983;SDS011;3532;51.118;7.210;2023-06-14T05:55:46;4.60;;;3.33;;
6983;SDS011;3532;51.118;7.210;2023-06-14T05:58:11;4.20;;;3.80;;
6983;SDS011;3532;51.118;7.210;2023-06-14T06:00:38;4.13;;;3.73;;
6983;SDS011;3532;51.118;7.210;2023-06-14T06:03:03;4.33;;;3.33;;
6983;SDS011;3532;51.118;7.210;2023-06-14T06:05:29;6.03;;;3.40;;
6983;SDS011;3532;51.118;7.210;2023-06-14T06:07:55;3.10;;;2.80;;
6983;SDS011;3532;51.118;7.210;2023-06-14T06:10:20;4.73;;;3.60;;
6983;SDS011;3532;51.118;7.210;2023-06-14T06:12:46;3.80;;;3.30;;
6983;SDS011;3532;51.118;7.210;2023-06-14T06:15:12;7.07;;;3.83;;
6983;SDS011;3532;51.118;7.210;2023-06-14T06:17:38;3.60;;;3.30;;
6983;SDS011;3532;51.118;7.210;2023-06-14T06:20:04;4.80;;;3.30;;
6983;SDS011;3532;51.118;7.210;2023-06-14T06:22:33;5.80;;;3.43;;
6983;SDS011;3532;51.118;7.210;2023-06-14T06:24:59;5.37;;;3.43;;
6983;SDS011;3532;51.118;7.210;2023-06-14T06:27:24;4.37;;;3.67;;
6983;SDS011;3532;51.118;7.210;2023-06-14T06:29:50;4.07;;;3.70;;
6983;SDS011;3532;51.118;7.210;2023-06-14T06:32:16;3.60;;;3.13;;
6983;SDS011;3532;51.118;7.210;2023-06-14T06:34:42;5.30;;;3.43;;
6983;SDS011;3532;51.118;7.210;2023-06-14T06:37:07;6.27;;;3.20;;
6983;SDS011;3532;51.118;7.210;2023-06-14T06:39:32;3.73;;;3.00;;
6983;SDS011;3532;51.118;7.210;2023-06-14T06:41:58;3.50;;;3.20;;
6983;SDS011;3532;51.118;7.210;2023-06-14T06:44:23;9.03;;;3.10;;
6983;SDS011;3532;51.118;7.210;2023-06-14T06:46:48;5.37;;;3.03;;
6983;SDS011;3532;51.118;7.210;2023-06-14T06:49:13;3.70;;;3.27;;
6983;SDS011;3532;51.118;7.210;2023-06-14T06:51:42;3.77;;;3.10;;
6983;SDS011;3532;51.118;7.210;2023-06-14T06:54:10;3.27;;;2.87;;
6983;SDS011;3532;51.118;7.210;2023-06-14T06:56:36;3.67;;;3.33;;
6983;SDS011;3532;51.118;7.210;2023-06-14T06:59:01;3.83;;;2.70;;
6983;SDS011;3532;51.118;7.210;2023-06-14T07:01:26;3.40;;;2.87;;
6983;SDS011;3532;51.118;7.210;2023-06-14T07:03:53;3.43;;;3.00;;
6983;SDS011;3532;51.118;7.210;2023-06-14T07:06:19;3.50;;;2.90;;
6983;SDS011;3532;51.118;7.210;2023-06-14T07:08:45;3.57;;;2.60;;
6983;SDS011;3532;51.118;7.210;2023-06-14T07:11:11;3.63;;;2.37;;
6983;SDS011;3532;51.118;7.210;2023-06-14T07:13:36;3.03;;;2.80;;
6983;SDS011;3532;51.118;7.210;2023-06-14T07:16:03;2.70;;;2.50;;
6983;SDS011;3532;51.118;7.210;2023-06-14T07:18:29;2.90;;;2.53;;
6983;SDS011;3532;51.118;7.210;2023-06-14T07:20:55;4.90;;;2.50;;
6983;SDS011;3532;51.118;7.210;2023-06-14T07:23:22;2.80;;;2.60;;
6983;SDS011;3532;51.118;7.210;2023-06-14T07:25:47;4.37;;;2.67;;
6983;SDS011;3532;51.118;7.210;2023-06-14T07:28:12;3.47;;;2.60;;
6983;SDS011;3532;51.118;7.210;2023-06-14T07:30:37;3.47;;;2.80;;
6983;SDS011;3532;51.118;7.210;2023-06-14T07:33:03;3.77;;;2.20;;
6983;SDS011;3532;51.118;7.210;2023-06-14T07:35:28;2.60;;;2.40;;
6983;SDS011;3532;51.118;7.210;2023-06-14T07:37:53;2.43;;;2.20;;
6983;SDS011;3532;51.118;7.210;2023-06-14T07:40:19;3.60;;;2.57;;
6983;SDS011;3532;51.118;7.210;2023-06-14T07:42:44;4.33;;;3.07;;
6983;SDS011;3532;51.118;7.210;2023-06-14T07:45:10;3.27;;;3.07;;
6983;SDS011;3532;51.118;7.210;2023-06-14T07:47:36;3.77;;;2.27;;
6983;SDS011;3532;51.118;7.210;2023-06-14T07:50:02;2.60;;;2.40;;
6983;SDS011;3532;51.118;7.210;2023-06-14T07:52:28;3.27;;;2.97;;
6983;SDS011;3532;51.118;7.210;2023-06-14T07:54:53;3.57;;;2.50;;
6983;SDS011;3532;51.118;7.210;2023-06-14T07:57:18;3.33;;;2.30;;
6983;SDS011;3532;51.118;7.210;2023-06-14T07:59:45;2.37;;;2.13;;
6983;SDS011;3532;51.118;7.210;2023-06-14T08:02:10;2.73;;;2.40;;
6983;SDS011;3532;51.118;7.210;2023-06-14T08:04:36;5.07;;;2.57;;
6983;SDS011;3532;51.118;7.210;2023-06-14T08:07:01;2.30;;;2.10;;
6983;SDS011;3532;51.118;7.210;2023-06-14T08:09:26;2.50;;;2.30;;
6983;SDS011;3532;51.118;7.210;2023-06-14T08:11:53;2.40;;;2.20;;
6983;SDS011;3532;51.118;7.210;2023-06-14T08:14:19;3.13;;;2.73;;
6983;SDS011;3532;51.118;7.210;2023-06-14T08:16:44;2.43;;;2.20;;
6983;SDS011;3532;51.118;7.210;2023-06-14T08:19:09;2.67;;;2.30;;
6983;SDS011;3532;51.118;7.210;2023-06-14T08:21:35;3.37;;;2.30;;
6983;SDS011;3532;51.118;7.210;2023-06-14T08:24:01;3.33;;;2.20;;
6983;SDS011;3532;51.118;7.210;2023-06-14T08:26:27;3.20;;;2.50;;
6983;SDS011;3532;51.118;7.210;2023-06-14T08:28:54;2.50;;;2.30;;
6983;SDS011;3532;51.118;7.210;2023-06-14T08:31:19;3.33;;;2.50;;
6983;SDS011;3532;51.118;7.210;2023-06-14T08:33:45;4.63;;;2.60;;
6983;SDS011;3532;51.118;7.210;2023-06-14T08:36:10;2.87;;;2.57;;
6983;SDS011;3532;51.118;7.210;2023-06-14T08:38:36;2.57;;;2.37;;
6983;SDS011;3532;51.118;7.210;2023-06-14T08:41:02;5.47;;;3.10;;
6983;SDS011;3532;51.118;7.210;2023-06-14T08:43:30;7.37;;;2.97;;
6983;SDS011;3532;51.118;7.210;2023-06-14T08:45:58;2.80;;;2.60;;
6983;SDS011;3532;51.118;7.210;2023-06-14T08:48:25;2.57;;;2.37;;
6983;SDS011;3532;51.118;7.210;2023-06-14T08:50:51;2.50;;;2.30;;
6983;SDS011;3532;51.118;7.210;2023-06-14T08:53:26;6.33;;;2.83;;
6983;SDS011;3532;51.118;7.210;2023-06-14T08:55:53;2.63;;;2.43;;
6983;SDS011;3532;51.118;7.210;2023-06-14T08:58:20;3.13;;;2.63;;
6983;SDS011;3532;51.118;7.210;2023-06-14T09:00:49;4.17;;;2.17;;
6983;SDS011;3532;51.118;7.210;2023-06-14T09:03:14;3.43;;;2.50;;
6983;SDS011;3532;51.118;7.210;2023-06-14T09:05:40;2.83;;;2.50;;
6983;SDS011;3532;51.118;7.210;2023-06-14T09:08:05;2.70;;;2.50;;
6983;SDS011;3532;51.118;7.210;2023-06-14T09:10:31;2.90;;;2.30;;
6983;SDS011;3532;51.118;7.210;2023-06-14T09:13:00;4.17;;;2.50;;
6983;SDS011;3532;51.118;7.210;2023-06-14T09:15:26;6.00;;;3.00;;
6983;SDS011;3532;51.118;7.210;2023-06-14T09:17:51;3.23;;;2.63;;
6983;SDS011;3532;51.118;7.210;2023-06-14T09:20:18;4.60;;;2.77;;
6983;SDS011;3532;51.118;7.210;2023-06-14T09:22:43;3.67;;;2.70;;
6983;SDS011;3532;51.118;7.210;2023-06-14T09:25:09;4.07;;;2.53;;
6983;SDS011;3532;51.118;7.210;2023-06-14T09:27:35;2.73;;;2.53;;
6983;SDS011;3532;51.118;7.210;2023-06-14T09:30:01;3.53;;;2.60;;
6983;SDS011;3532;51.118;7.210;2023-06-14T09:32:28;2.77;;;2.50;;
6983;SDS011;3532;51.118;7.210;2023-06-14T09:34:53;3.70;;;2.83;;
6983;SDS011;3532;51.118;7.210;2023-06-14T09:37:31;2.90;;;2.60;;
6983;SDS011;3532;51.118;7.210;2023-06-14T09:39:57;5.33;;;3.10;;
6983;SDS011;3532;51.118;7.210;2023-06-14T09:42:23;6.33;;;2.80;;
6983;SDS011;3532;51.118;7.210;2023-06-14T09:44:50;3.40;;;3.00;;
6983;SDS011;3532;51.118;7.210;2023-06-14T09:47:16;2.73;;;2.53;;
6983;SDS011;3532;51.118;7.210;2023-06-14T09:49:42;3.87;;;2.83;;
6983;SDS011;3532;51.118;7.210;2023-06-14T09:52:12;4.73;;;2.80;;
6983;SDS011;3532;51.118;7.210;2023-06-14T09:54:40;3.03;;;2.63;;
6983;SDS011;3532;51.118;7.210;2023-06-14T09:57:11;3.93;;;3.23;;
6983;SDS011;3532;51.118;7.210;2023-06-14T09:59:47;4.63;;;2.77;;
6983;SDS011;3532;51.118;7.210;2023-06-14T10:05:11;7.20;;;3.00;;
6983;SDS011;3532;51.118;7.210;2023-06-14T10:07:52;7.20;;;3.23;;
6983;SDS011;3532;51.118;7.210;2023-06-14T10:10:18;3.00;;;2.80;;
6983;SDS011;3532;51.118;7.210;2023-06-14T10:12:44;2.90;;;2.60;;
6983;SDS011;3532;51.118;7.210;2023-06-14T10:15:10;2.70;;;2.50;;
6983;SDS011;3532;51.118;7.210;2023-06-14T10:17:52;3.20;;;2.30;;
6983;SDS011;3532;51.118;7.210;2023-06-14T10:23:01;2.97;;;2.60;;
6983;SDS011;3532;51.118;7.210;2023-06-14T10:25:29;6.00;;;2.57;;
6983;SDS011;3532;51.118;7.210;2023-06-14T10:28:15;3.50;;;2.37;;
6983;SDS011;3532;51.118;7.210;2023-06-14T10:31:01;2.77;;;2.17;;
6983;SDS011;3532;51.118;7.210;2023-06-14T10:34:10;2.60;;;2.30;;
6983;SDS011;3532;51.118;7.210;2023-06-14T10:36:28;2.63;;;2.27;;
6983;SDS011;3532;51.118;7.210;2023-06-14T10:39:06;2.70;;;2.50;;
6983;SDS011;3532;51.118;7.210;2023-06-14T10:41:37;2.90;;;2.30;;
6983;SDS011;3532;51.118;7.210;2023-06-14T10:46:37;5.00;;;2.40;;
6983;SDS011;3532;51.118;7.210;2023-06-14T10:49:02;3.33;;;2.47;;
6983;SDS011;3532;51.118;7.210;2023-06-14T10:51:29;2.70;;;2.50;;
6983;SDS011;3532;51.118;7.210;2023-06-14T10:53:55;3.50;;;2.70;;
6983;SDS011;3532;51.118;7.210;2023-06-14T10:56:30;4.53;;;2.30;;
6983;SDS011;3532;51.118;7.210;2023-06-14T10:58:56;3.37;;;2.10;;
6983;SDS011;3532;51.118;7.210;2023-06-14T11:01:34;4.50;;;2.20;;
6983;SDS011;3532;51.118;7.210;2023-06-14T11:04:09;2.20;;;2.00;;
6983;SDS011;3532;51.118;7.210;2023-06-14T11:06:46;1.90;;;1.80;;
6983;SDS011;3532;51.118;7.210;2023-06-14T11:11:50;2.20;;;1.90;;
6983;SDS011;3532;51.118;7.210;2023-06-14T11:14:16;2.00;;;1.90;;
6983;SDS011;3532;51.118;7.210;2023-06-14T11:16:42;2.20;;;2.00;;
6983;SDS011;3532;51.118;7.210;2023-06-14T11:19:13;2.33;;;2.13;;
6983;SDS011;3532;51.118;7.210;2023-06-14T11:21:39;2.90;;;1.80;;
6983;SDS011;3532;51.118;7.210;2023-06-14T11:24:09;2.47;;;2.13;;
6983;SDS011;3532;51.118;7.210;2023-06-14T11:26:37;2.23;;;2.03;;
6983;SDS011;3532;51.118;7.210;2023-06-14T11:29:02;2.03;;;1.93;;
6983;SDS011;3532;51.118;7.210;2023-06-14T11:31:28;2.87;;;2.30;;
6983;SDS011;3532;51.118;7.210;2023-06-14T11:33:54;2.33;;;2.13;;
6983;SDS011;3532;51.118;7.210;2023-06-14T11:36:21;2.23;;;2.03;;
6983;SDS011;3532;51.118;7.210;2023-06-14T11:38:47;2.30;;;2.10;;
6983;SDS011;3532;51.118;7.210;2023-06-14T11:41:12;3.27;;;1.80;;
6983;SDS011;3532;51.118;7.210;2023-06-14T11:43:39;2.10;;;1.73;;
6983;SDS011;3532;51.118;7.210;2023-06-14T11:46:11;3.40;;;2.37;;
6983;SDS011;3532;51.118;7.210;2023-06-14T11:48:40;2.00;;;1.70;;
6983;SDS011;3532;51.118;7.210;2023-06-14T11:51:06;2.33;;;1.97;;
6983;SDS011;3532;51.118;7.210;2023-06-14T11:53:31;2.83;;;1.80;;
6983;SDS011;3532;51.118;7.210;2023-06-14T11:55:57;2.33;;;1.80;;
6983;SDS011;3532;51.118;7.210;2023-06-14T11:58:23;1.90;;;1.80;;
6983;SDS011;3532;51.118;7.210;2023-06-14T12:00:48;1.60;;;1.50;;
6983;SDS011;3532;51.118;7.210;2023-06-14T12:03:14;1.97;;;1.80;;
6983;SDS011;3532;51.118;7.210;2023-06-14T12:05:39;2.73;;;1.57;;
6983;SDS011;3532;51.118;7.210;2023-06-14T12:08:05;2.20;;;2.00;;
6983;SDS011;3532;51.118;7.210;2023-06-14T12:10:39;2.27;;;1.80;;
6983;SDS011;3532;51.118;7.210;2023-06-14T12:13:05;2.17;;;1.90;;
6983;SDS011;3532;51.118;7.210;2023-06-14T12:15:31;2.77;;;1.73;;
6983;SDS011;3532;51.118;7.210;2023-06-14T12:17:57;2.13;;;1.83;;
6983;SDS011;3532;51.118;7.210;2023-06-14T12:20:23;1.87;;;1.77;;
6983;SDS011;3532;51.118;7.210;2023-06-14T12:22:54;2.00;;;1.70;;
6983;SDS011;3532;51.118;7.210;2023-06-14T12:25:28;1.70;;;1.60;;
6983;SDS011;3532;51.118;7.210;2023-06-14T12:27:56;2.33;;;1.97;;
6983;SDS011;3532;51.118;7.210;2023-06-14T12:30:22;4.13;;;1.83;;
6983;SDS011;3532;51.118;7.210;2023-06-14T12:32:47;3.40;;;1.70;;
6983;SDS011;3532;51.118;7.210;2023-06-14T12:35:13;2.00;;;1.53;;
6983;SDS011;3532;51.118;7.210;2023-06-14T12:37:39;3.60;;;2.17;;
6983;SDS011;3532;51.118;7.210;2023-06-14T12:40:04;1.90;;;1.70;;
6983;SDS011;3532;51.118;7.210;2023-06-14T12:42:31;2.00;;;1.80;;
6983;SDS011;3532;51.118;7.210;2023-06-14T12:44:56;2.20;;;2.00;;
6983;SDS011;3532;51.118;7.210;2023-06-14T12:47:21;2.20;;;2.00;;
6983;SDS011;3532;51.118;7.210;2023-06-14T12:49:47;2.53;;;2.03;;
6983;SDS011;3532;51.118;7.210;2023-06-14T12:52:12;2.90;;;2.00;;
6983;SDS011;3532;51.118;7.210;2023-06-14T12:54:37;2.47;;;1.90;;
6983;SDS011;3532;51.118;7.210;2023-06-14T12:57:04;2.33;;;1.90;;
6983;SDS011;3532;51.118;7.210;2023-06-14T12:59:30;2.63;;;2.40;;
6983;SDS011;3532;51.118;7.210;2023-06-14T13:01:58;5.33;;;2.47;;
6983;SDS011;3532;51.118;7.210;2023-06-14T13:04:24;2.90;;;2.03;;
6983;SDS011;3532;51.118;7.210;2023-06-14T13:06:50;2.30;;;2.10;;
6983;SDS011;3532;51.118;7.210;2023-06-14T13:09:15;1.93;;;1.83;;
6983;SDS011;3532;51.118;7.210;2023-06-14T13:11:40;2.40;;;2.20;;
6983;SDS011;3532;51.118;7.210;2023-06-14T13:14:06;2.50;;;2.30;;
6983;SDS011;3532;51.118;7.210;2023-06-14T13:16:31;2.30;;;2.10;;
6983;SDS011;3532;51.118;7.210;2023-06-14T13:18:56;5.87;;;2.10;;
6983;SDS011;3532;51.118;7.210;2023-06-14T13:21:22;4.73;;;2.10;;
6983;SDS011;3532;51.118;7.210;2023-06-14T13:23:47;3.10;;;2.20;;
6983;SDS011;3532;51.118;7.210;2023-06-14T13:26:12;3.57;;;1.93;;
6983;SDS011;3532;51.118;7.210;2023-06-14T13:28:37;2.17;;;2.00;;
6983;SDS011;3532;51.118;7.210;2023-06-14T13:31:03;3.53;;;2.57;;
6983;SDS011;3532;51.118;7.210;2023-06-14T13:33:28;2.70;;;2.03;;
6983;SDS011;3532;51.118;7.210;2023-06-14T13:35:54;2.40;;;2.20;;
6983;SDS011;3532;51.118;7.210;2023-06-14T13:38:19;4.03;;;2.30;;
6983;SDS011;3532;51.118;7.210;2023-06-14T13:40:45;3.53;;;2.37;;
6983;SDS011;3532;51.118;7.210;2023-06-14T13:43:10;2.37;;;2.17;;
6983;SDS011;3532;51.118;7.210;2023-06-14T13:45:36;2.40;;;2.20;;
6983;SDS011;3532;51.118;7.210;2023-06-14T13:48:01;3.27;;;2.17;;
6983;SDS011;3532;51.118;7.210;2023-06-14T13:50:26;3.47;;;2.10;;
6983;SDS011;3532;51.118;7.210;2023-06-14T13:52:52;2.87;;;2.17;;
6983;SDS011;3532;51.118;7.210;2023-06-14T13:55:18;2.27;;;2.07;;
6983;SDS011;3532;51.118;7.210;2023-06-14T13:57:43;4.00;;;2.03;;
6983;SDS011;3532;51.118;7.210;2023-06-14T14:00:10;2.53;;;2.30;;
6983;SDS011;3532;51.118;7.210;2023-06-14T14:02:36;2.20;;;1.97;;
6983;SDS011;3532;51.118;7.210;2023-06-14T14:05:01;3.60;;;2.50;;
6983;SDS011;3532;51.118;7.210;2023-06-14T14:07:26;2.40;;;2.20;;
6983;SDS011;3532;51.118;7.210;2023-06-14T14:09:53;3.97;;;2.43;;
6983;SDS011;3532;51.118;7.210;2023-06-14T14:12:18;2.37;;;2.10;;
6983;SDS011;3532;51.118;7.210;2023-06-14T14:14:44;4.07;;;2.40;;
6983;SDS011;3532;51.118;7.210;2023-06-14T14:17:09;3.27;;;2.33;;
6983;SDS011;3532;51.118;7.210;2023-06-14T14:19:34;2.87;;;2.63;;
6983;SDS011;3532;51.118;7.210;2023-06-14T14:22:01;2.60;;;2.40;;
6983;SDS011;3532;51.118;7.210;2023-06-14T14:24:26;2.17;;;2.03;;
6983;SDS011;3532;51.118;7.210;2023-06-14T14:26:52;2.40;;;2.20;;
6983;SDS011;3532;51.118;7.210;2023-06-14T14:29:18;2.70;;;2.27;;
6983;SDS011;3532;51.118;7.210;2023-06-14T14:31:44;2.23;;;2.03;;
6983;SDS011;3532;51.118;7.210;2023-06-14T14:34:09;2.53;;;2.20;;
6983;SDS011;3532;51.118;7.210;2023-06-14T14:36:34;3.23;;;2.33;;
6983;SDS011;3532;51.118;7.210;2023-06-14T14:39:02;2.60;;;2.40;;
6983;SDS011;3532;51.118;7.210;2023-06-14T14:41:28;2.43;;;2.23;;
6983;SDS011;3532;51.118;7.210;2023-06-14T14:43:54;6.37;;;2.63;;
6983;SDS011;3532;51.118;7.210;2023-06-14T14:46:19;2.43;;;2.23;;
6983;SDS011;3532;51.118;7.210;2023-06-14T14:48:44;2.43;;;2.20;;
6983;SDS011;3532;51.118;7.210;2023-06-14T14:51:10;2.20;;;2.00;;
6983;SDS011;3532;51.118;7.210;2023-06-14T14:53:35;2.73;;;2.53;;
6983;SDS011;3532;51.118;7.210;2023-06-14T14:56:00;3.33;;;2.20;;
6983;SDS011;3532;51.118;7.210;2023-06-14T14:58:26;2.33;;;2.13;;
6983;SDS011;3532;51.118;7.210;2023-06-14T15:00:52;2.77;;;2.30;;
6983;SDS011;3532;51.118;7.210;2023-06-14T15:03:17;2.40;;;2.00;;
6983;SDS011;3532;51.118;7.210;2023-06-14T15:05:42;3.13;;;1.90;;
6983;SDS011;3532;51.118;7.210;2023-06-14T15:08:08;3.17;;;2.20;;
6983;SDS011;3532;51.118;7.210;2023-06-14T15:10:37;3.30;;;2.10;;
6983;SDS011;3532;51.118;7.210;2023-06-14T15:13:05;3.23;;;2.47;;
6983;SDS011;3532;51.118;7.210;2023-06-14T15:15:30;2.43;;;1.93;;
6983;SDS011;3532;51.118;7.210;2023-06-14T15:17:56;2.30;;;2.10;;
6983;SDS011;3532;51.118;7.210;2023-06-14T15:20:21;2.03;;;1.87;;
6983;SDS011;3532;51.118;7.210;2023-06-14T15:22:47;2.47;;;2.27;;
6983;SDS011;3532;51.118;7.210;2023-06-14T15:25:12;2.80;;;2.30;;
6983;SDS011;3532;51.118;7.210;2023-06-14T15:27:38;5.73;;;2.43;;